Archival Weather

Salzburg

Salzburg, Austria (LOWS)

Report from: Friday, May 26, 2023 5:20 AM CEST
Current time: Tuesday, July 16, 2024 4:44 PM CEST

Current weather – Weather history – Daily summaries
Weather forecast

Temperature9.0°C (48.2°F)
Dew point9.0°C (48.2°F)
Winds 2 kts (1 m/s, 2.3 mph) Vrb
Winds variableWinds variable
Visibility6.2 mi. (10 km)
Clouds Sky clear
Altimeter30.18 in.Hg (1022 mB)
Relative humidity100 %
Density altitude-852 ft. (-260 m)
Remarks Fully automated report
No clouds detected
Flight conditions Visual Meteorological Conditions
Raw dataLOWS 260320Z AUTO VRB02KT 9999 NCD 09/09 Q1022
An error has occurred. This application may no longer respond until reloaded. Reload 🗙